Time;durP1;ratioP1;P1;durP2;ratioP2;P2;SDS_P1;SDS_P2;PMS_P1;PMS_P2;Temp;Humidity;BMP_temperature;BMP_pressure;BME280_temperature;BME280_humidity;BME280_pressure;Samples;Min_cycle;Max_cycle;Signal;HPM_P1;HPM_P2
2024/01/18 00:05:26;;;;;;;6.20;4.60;;;;;;;5.17;96.06;96429.94;7212505;40;20277;31
2024/01/18 00:15:51;;;;;;;5.37;3.73;;;;;;;4.81;95.02;96445.41;7298770;39;20282;31
2024/01/18 00:21:27;;;;;;;4.30;3.30;;;;;;;4.67;96.80;96428.50;7277883;39;20257;31
2024/01/18 00:26:47;;;;;;;3.30;2.55;;;;;;;4.61;95.28;96447.97;7190088;40;20311;31
2024/01/18 00:32:07;;;;;;;3.70;2.80;;;;;;;4.52;96.15;96455.31;7242332;40;20380;31
2024/01/18 00:37:43;;;;;;;3.30;2.70;;;;;;;4.30;96.86;96452.94;7271960;39;20298;31
2024/01/18 00:43:18;;;;;;;3.20;2.60;;;;;;;4.30;96.71;96466.25;7265850;40;20390;31
2024/01/18 00:48:54;;;;;;;2.60;2.35;;;;;;;4.38;96.75;96472.25;7227739;40;20309;31
2024/01/18 00:54:31;;;;;;;2.65;2.00;;;;;;;4.25;95.76;96474.00;7218376;40;20269;31
2024/01/18 01:00:07;;;;;;;3.53;2.40;;;;;;;4.18;96.98;96478.44;7199580;40;20345;31
2024/01/18 01:05:27;;;;;;;2.70;2.20;;;;;;;4.09;96.48;96497.25;7177515;40;20267;31
2024/01/18 01:11:03;;;;;;;3.42;2.58;;;;;;;4.06;97.51;96502.16;7031566;40;20272;31
2024/01/18 01:16:24;;;;;;;3.12;2.60;;;;;;;4.19;97.21;96520.91;7239109;40;20487;31
2024/01/18 01:21:59;;;;;;;3.03;2.70;;;;;;;4.27;97.83;96514.59;7180332;40;20254;31
2024/01/18 01:32:40;;;;;;;2.73;2.37;;;;;;;3.92;97.69;96545.66;7238122;40;20757;31
2024/01/18 01:38:16;;;;;;;2.80;2.40;;;;;;;4.12;98.09;96524.53;7221983;40;20237;31
2024/01/18 01:43:36;;;;;;;2.93;2.43;;;;;;;4.15;97.43;96535.63;7251825;40;20245;31
2024/01/18 01:49:13;;;;;;;2.50;2.20;;;;;;;4.14;96.70;96531.31;7276782;40;20348;31
2024/01/18 01:54:49;;;;;;;2.40;2.20;;;;;;;4.09;97.01;96544.38;7178926;40;20313;31
2024/01/18 02:00:25;;;;;;;3.05;2.50;;;;;;;4.05;97.19;96535.13;7137584;40;20348;31
2024/01/18 02:06:01;;;;;;;4.70;3.00;;;;;;;4.08;98.09;96548.09;7149877;40;20378;31
2024/01/18 02:11:36;;;;;;;3.40;2.80;;;;;;;4.04;96.85;96562.78;7136636;40;20243;31
2024/01/18 02:17:11;;;;;;;2.70;2.30;;;;;;;4.05;97.28;96567.94;7153928;40;20258;31
2024/01/18 02:22:48;;;;;;;2.67;2.13;;;;;;;3.96;96.59;96565.59;7185722;40;20258;31
2024/01/18 02:28:24;;;;;;;2.40;2.13;;;;;;;3.89;97.73;96548.72;7168037;40;20262;31
2024/01/18 02:33:59;;;;;;;2.20;2.00;;;;;;;3.84;96.82;96545.81;7207906;40;20336;31
2024/01/18 02:39:35;;;;;;;2.20;2.00;;;;;;;3.73;97.49;96544.44;7206540;40;20325;31
2024/01/18 02:45:12;;;;;;;2.30;2.10;;;;;;;3.64;97.77;96522.44;7194853;40;20262;31
2024/01/18 02:50:48;;;;;;;2.53;2.33;;;;;;;3.56;97.19;96543.03;7201965;40;20329;31
2024/01/18 02:56:23;;;;;;;3.55;2.40;;;;;;;3.47;98.13;96557.47;7188245;40;20266;31
2024/01/18 03:08:00;;;;;;;2.80;2.50;;;;;;;3.26;97.68;96533.47;7206929;40;21254;31
2024/01/18 03:13:20;;;;;;;3.40;2.30;;;;;;;3.21;98.68;96535.88;7269323;40;20242;31
2024/01/18 03:18:55;;;;;;;2.60;2.30;;;;;;;3.12;97.89;96549.28;7302090;39;20374;31
2024/01/18 03:24:32;;;;;;;2.50;2.30;;;;;;;3.12;98.58;96548.47;7263248;40;20258;31
2024/01/18 03:29:52;;;;;;;2.30;2.10;;;;;;;3.20;98.10;96540.41;7197602;40;20246;31
2024/01/18 03:35:26;;;;;;;2.40;2.10;;;;;;;3.08;96.74;96533.87;7205672;40;20257;31
2024/01/18 03:41:02;;;;;;;2.45;2.10;;;;;;;3.00;96.51;96541.97;7182662;40;20241;31
2024/01/18 03:46:24;;;;;;;3.17;2.30;;;;;;;2.89;96.99;96548.59;7185119;40;20394;31
2024/01/18 03:51:44;;;;;;;2.20;2.00;;;;;;;2.76;97.21;96536.94;7189942;40;20266;31
2024/01/18 03:57:20;;;;;;;3.55;2.35;;;;;;;2.70;98.38;96549.13;7167028;40;20239;31
2024/01/18 04:02:55;;;;;;;3.53;2.90;;;;;;;2.64;97.36;96555.16;7175259;40;20447;31
2024/01/18 04:08:16;;;;;;;3.15;2.85;;;;;;;2.66;98.31;96551.34;7247016;40;20299;31
2024/01/18 04:13:49;;;;;;;3.33;3.03;;;;;;;2.60;98.55;96536.09;7238251;40;20256;31
2024/01/18 04:19:24;;;;;;;4.13;3.40;;;;;;;2.59;97.65;96574.31;7208197;40;20300;31
2024/01/18 04:24:59;;;;;;;3.50;3.20;;;;;;;2.52;97.43;96605.31;7205396;40;20349;31
2024/01/18 04:30:35;;;;;;;4.17;3.50;;;;;;;2.51;98.43;96595.66;7178150;40;20296;31
2024/01/18 04:35:56;;;;;;;3.80;3.40;;;;;;;2.64;98.70;96608.34;7187743;40;20266;31
2024/01/18 04:41:28;;;;;;;3.77;2.77;;;;;;;2.44;98.45;96634.63;7236404;40;20246;31
2024/01/18 04:47:02;;;;;;;3.67;2.90;;;;;;;2.42;98.80;96651.72;7248709;40;20327;31
2024/01/18 04:52:38;;;;;;;4.60;3.60;;;;;;;2.56;97.88;96641.16;7225975;40;20250;31
2024/01/18 04:58:12;;;;;;;3.50;2.97;;;;;;;2.62;97.92;96605.88;7238431;40;20238;31
2024/01/18 05:03:48;;;;;;;3.30;2.80;;;;;;;2.54;98.01;96605.12;7232374;40;20261;31
2024/01/18 05:09:10;;;;;;;3.40;3.10;;;;;;;2.54;97.62;96603.31;7223447;40;20345;31
2024/01/18 05:14:46;;;;;;;4.03;3.50;;;;;;;2.52;98.63;96588.53;7241279;40;21443;31
2024/01/18 05:20:22;;;;;;;4.27;3.70;;;;;;;2.44;98.00;96588.59;7231655;40;20265;31
2024/01/18 05:25:57;;;;;;;4.20;3.30;;;;;;;2.34;98.65;96590.69;7238417;40;20257;31
2024/01/18 05:31:32;;;;;;;2.80;2.50;;;;;;;2.23;97.99;96586.63;7248843;40;20304;31
2024/01/18 05:37:08;;;;;;;2.80;2.50;;;;;;;2.12;99.26;96579.91;7258648;39;20277;31
2024/01/18 05:47:45;;;;;;;2.87;2.20;;;;;;;2.07;98.77;96600.03;7207282;40;21457;31
2024/01/18 05:53:21;;;;;;;3.55;3.00;;;;;;;2.00;98.91;96596.44;7167550;40;20243;31
2024/01/18 05:58:41;;;;;;;3.55;2.90;;;;;;;2.01;98.94;96601.59;7197976;40;20258;31
2024/01/18 06:04:17;;;;;;;3.47;3.00;;;;;;;1.97;98.86;96612.75;7237795;40;20238;31
2024/01/18 06:09:53;;;;;;;3.37;3.03;;;;;;;1.93;98.67;96608.78;7212898;40;20273;31
2024/01/18 06:20:18;;;;;;;3.73;3.17;;;;;;;1.89;99.91;96616.25;7257686;40;20259;31
2024/01/18 06:30:56;;;;;;;3.97;3.07;;;;;;;1.86;98.93;96608.66;7276680;39;20267;31
2024/01/18 06:41:32;;;;;;;4.03;3.23;;;;;;;1.92;98.64;96628.38;7276868;40;21380;31
2024/01/18 06:47:08;;;;;;;3.87;3.23;;;;;;;1.81;99.44;96638.38;7242663;40;20261;31
2024/01/18 06:53:03;;;;;;;3.43;3.00;;;;;;;1.75;98.57;96646.25;7175194;40;20345;31
2024/01/18 06:58:10;;;;;;;3.57;2.97;;;;;;;1.75;99.31;96663.00;7255070;40;20385;31
2024/01/18 07:08:50;;;;;;;4.23;3.10;;;;;;;1.81;99.33;96680.88;7273475;39;20823;31
2024/01/18 07:19:26;;;;;;;4.90;3.30;;;;;;;1.78;99.36;96672.44;7279903;39;20492;31
2024/01/18 07:30:03;;;;;;;3.60;2.10;;;;;;;1.69;99.66;96663.69;7265269;40;21342;31
2024/01/18 07:35:37;;;;;;;2.60;2.05;;;;;;;1.63;98.46;96669.69;7257084;40;20390;31
2024/01/18 07:46:16;;;;;;;2.17;1.90;;;;;;;1.59;98.86;96671.03;7261118;40;20271;31
2024/01/18 07:51:36;;;;;;;1.90;1.60;;;;;;;1.61;98.89;96676.19;7236189;40;20253;31
2024/01/18 08:02:17;;;;;;;2.45;1.85;;;;;;;1.54;99.45;96675.19;7278327;40;20270;31
2024/01/18 08:07:53;;;;;;;2.40;1.90;;;;;;;1.60;99.97;96690.44;7287281;39;20274;31
2024/01/18 08:13:28;;;;;;;2.00;1.35;;;;;;;1.66;99.16;96708.34;7212172;40;20242;31
2024/01/18 08:19:04;;;;;;;2.40;1.90;;;;;;;1.66;98.74;96734.88;7025694;40;21339;31
2024/01/18 08:24:24;;;;;;;2.80;2.10;;;;;;;1.66;98.33;96762.25;7268194;39;20243;31
2024/01/18 08:29:44;;;;;;;2.15;1.40;;;;;;;1.61;98.37;96769.91;7246902;40;20246;31
2024/01/18 08:35:21;;;;;;;1.90;1.50;;;;;;;1.58;97.94;96785.34;7260156;40;20440;31
2024/01/18 08:40:53;;;;;;;1.90;1.57;;;;;;;1.57;97.63;96783.69;7239889;40;20245;31
2024/01/18 08:46:14;;;;;;;1.53;1.40;;;;;;;1.62;97.37;96784.84;7178074;40;20321;31
2024/01/18 08:51:48;;;;;;;1.80;1.58;;;;;;;1.55;97.27;96797.13;7200436;40;20257;31
2024/01/18 08:57:23;;;;;;;2.10;1.90;;;;;;;1.53;97.13;96819.53;7160528;40;20269;31
2024/01/18 09:02:56;;;;;;;1.37;1.10;;;;;;;1.47;97.62;96836.97;7159199;40;20247;31
2024/01/18 09:08:34;;;;;;;1.30;1.10;;;;;;;1.48;98.29;96859.84;7148006;40;20321;31
2024/01/18 09:13:53;;;;;;;1.40;0.93;;;;;;;1.48;98.41;96889.03;7233071;40;20274;31
2024/01/18 09:24:32;;;;;;;0.80;0.73;;;;;;;1.44;98.94;96910.78;7275936;40;20269;31
2024/01/18 09:30:08;;;;;;;0.65;0.65;;;;;;;1.32;98.92;96919.06;7227818;40;20253;31
2024/01/18 09:35:27;;;;;;;1.36;0.80;;;;;;;1.35;99.52;96925.88;7253831;39;20304;31
2024/01/18 09:41:04;;;;;;;1.10;1.00;;;;;;;1.19;99.30;96929.31;7322510;39;20252;31
2024/01/18 09:46:39;;;;;;;1.07;0.97;;;;;;;1.26;99.28;96948.91;7318351;39;20247;31
2024/01/18 09:52:14;;;;;;;1.20;1.00;;;;;;;1.30;98.91;96957.38;7220876;40;20243;31
2024/01/18 09:57:50;;;;;;;1.50;1.40;;;;;;;1.29;99.54;96974.28;7230596;40;21479;31
2024/01/18 10:03:26;;;;;;;1.90;1.80;;;;;;;1.42;99.39;96987.06;7236397;40;20337;31
2024/01/18 10:09:01;;;;;;;2.90;1.80;;;;;;;1.43;98.66;96992.22;7255047;40;20257;31
2024/01/18 10:14:54;;;;;;;5.00;4.00;;;;;;;1.30;98.99;96999.81;7195746;40;20300;31
2024/01/18 10:20:28;;;;;;;6.37;4.30;;;;;;;1.48;99.17;97027.06;7187534;40;20318;31
2024/01/18 10:26:03;;;;;;;5.05;3.30;;;;;;;1.52;98.02;97036.34;7210881;40;20277;31
2024/01/18 10:31:41;;;;;;;2.30;1.90;;;;;;;1.63;98.81;97043.16;7177476;40;20374;31
2024/01/18 10:37:16;;;;;;;2.13;1.77;;;;;;;1.71;97.77;97065.22;7160863;40;20314;31
2024/01/18 10:42:51;;;;;;;13.90;7.83;;;;;;;1.70;98.16;97058.28;7197430;40;20345;31
2024/01/18 10:53:33;;;;;;;3.13;2.47;;;;;;;1.66;97.26;97087.97;7265639;39;20280;31
2024/01/18 11:04:08;;;;;;;3.37;2.50;;;;;;;1.81;97.50;97131.47;7311182;39;21278;31
2024/01/18 11:09:45;;;;;;;6.27;4.43;;;;;;;1.89;97.11;97149.28;7257778;40;20246;31
2024/01/18 11:15:20;;;;;;;3.40;2.90;;;;;;;1.89;97.34;97149.28;7204406;40;20368;31
2024/01/18 11:26:04;;;;;;;2.90;2.60;;;;;;;1.88;96.61;97161.72;7220227;40;20380;31
2024/01/18 11:31:34;;;;;;;13.93;2.80;;;;;;;1.94;96.00;97168.16;7238711;40;20252;31
2024/01/18 11:37:23;;;;;;;1.80;1.60;;;;;;;2.09;95.57;97193.97;7240725;40;20265;31
2024/01/18 11:42:59;;;;;;;2.10;1.40;;;;;;;2.03;94.98;97205.22;7220639;40;20253;31
2024/01/18 11:48:34;;;;;;;2.93;1.60;;;;;;;2.04;95.49;97227.31;7161541;40;20263;31
2024/01/18 11:54:09;;;;;;;2.60;1.87;;;;;;;2.04;96.29;97238.78;7212693;40;20343;31
2024/01/18 11:59:47;;;;;;;2.27;1.70;;;;;;;2.18;96.81;97250.59;7238228;40;20419;31
2024/01/18 12:05:08;;;;;;;3.10;1.80;;;;;;;2.33;96.80;97280.84;7235092;40;20343;31
2024/01/18 12:10:45;;;;;;;3.20;1.65;;;;;;;2.17;94.98;97297.59;7257440;40;20244;31
2024/01/18 12:16:35;;;;;;;2.35;1.70;;;;;;;2.14;95.94;97295.28;7269127;40;20289;31
2024/01/18 12:21:58;;;;;;;2.30;1.95;;;;;;;2.12;94.92;97315.00;7229715;40;20242;31
2024/01/18 12:27:33;;;;;;;2.47;1.97;;;;;;;2.11;95.32;97329.28;7247703;40;20402;31
2024/01/18 12:33:07;;;;;;;2.00;1.70;;;;;;;2.01;94.63;97337.41;7196383;40;20251;31
2024/01/18 12:38:43;;;;;;;2.70;2.05;;;;;;;1.92;95.93;97364.06;7150708;40;20253;31
2024/01/18 12:44:20;;;;;;;4.53;2.87;;;;;;;1.84;95.08;97378.16;7166912;40;20292;31
2024/01/18 12:55:01;;;;;;;4.60;3.50;;;;;;;1.75;95.45;97392.38;7229202;40;20284;31
2024/01/18 13:00:37;;;;;;;2.40;1.80;;;;;;;1.73;95.25;97410.25;7223961;40;20258;31
2024/01/18 13:06:15;;;;;;;5.00;2.60;;;;;;;1.66;94.63;97406.56;7229168;40;20241;31
2024/01/18 13:11:50;;;;;;;4.20;2.80;;;;;;;1.73;93.98;97426.19;7234662;40;20269;31
2024/01/18 13:22:15;;;;;;;4.97;2.73;;;;;;;1.70;93.22;97437.12;7244269;40;20456;31
2024/01/18 13:32:51;;;;;;;3.20;1.50;;;;;;;1.51;92.57;97462.03;7308013;39;21274;31
2024/01/18 13:38:26;;;;;;;4.27;2.00;;;;;;;1.63;92.73;97483.84;7254087;40;20349;31
2024/01/18 13:49:09;;;;;;;5.00;2.13;;;;;;;1.64;91.32;97522.72;7216387;40;20349;31
2024/01/18 13:59:28;;;;;;;4.85;1.60;;;;;;;1.40;91.22;97559.66;7276189;39;21468;31
2024/01/18 14:05:05;;;;;;;3.93;2.30;;;;;;;1.43;91.22;97573.44;7302016;39;20350;31
2024/01/18 14:10:38;;;;;;;3.90;2.40;;;;;;;1.33;90.53;97601.84;7259033;40;20271;31
2024/01/18 14:21:22;;;;;;;3.73;2.37;;;;;;;1.36;90.45;97646.69;7185925;40;20283;31
2024/01/18 14:26:54;;;;;;;3.57;2.07;;;;;;;1.44;91.27;97661.87;7195968;40;20266;31
2024/01/18 14:32:15;;;;;;;2.10;1.50;;;;;;;1.43;90.56;97679.62;7215102;40;20242;31
2024/01/18 14:37:52;;;;;;;6.83;2.70;;;;;;;1.42;90.59;97695.69;7277650;39;20268;31
2024/01/18 14:43:11;;;;;;;6.90;4.30;;;;;;;1.47;91.53;97722.63;7235468;40;20241;31
2024/01/18 14:48:31;;;;;;;3.15;2.35;;;;;;;1.41;91.05;97729.34;7199020;40;20771;31
2024/01/18 14:54:07;;;;;;;5.80;4.10;;;;;;;1.36;90.93;97737.75;7255644;39;20425;31
2024/01/18 14:59:43;;;;;;;6.30;3.80;;;;;;;1.34;90.36;97760.13;7226955;40;20394;31
2024/01/18 15:05:04;;;;;;;12.67;6.47;;;;;;;1.29;90.47;97775.63;7176791;40;20260;31
2024/01/18 15:10:38;;;;;;;8.37;5.37;;;;;;;1.22;89.65;97796.59;7166616;40;20243;31
2024/01/18 15:21:03;;;;;;;9.43;5.03;;;;;;;1.20;90.19;97827.75;7062087;40;20925;31
2024/01/18 15:31:43;;;;;;;10.77;5.73;;;;;;;1.08;89.95;97859.87;7251906;39;20765;31
2024/01/18 15:37:04;;;;;;;10.00;5.43;;;;;;;1.12;89.97;97883.34;7298566;39;20310;31
2024/01/18 15:42:24;;;;;;;12.10;7.05;;;;;;;1.12;89.67;97898.41;7277486;40;20261;31
2024/01/18 15:47:58;;;;;;;10.30;5.90;;;;;;;1.15;89.71;97920.19;7243301;40;20258;31
2024/01/18 15:53:20;;;;;;;10.83;3.80;;;;;;;1.16;89.39;97942.25;7246573;40;20320;31
2024/01/18 15:58:55;;;;;;;9.40;4.37;;;;;;;1.14;89.96;97954.84;7281876;40;20245;31
2024/01/18 16:04:31;;;;;;;9.10;4.70;;;;;;;1.21;89.63;97977.19;7237457;40;20243;31
2024/01/18 16:09:52;;;;;;;9.60;4.60;;;;;;;1.24;90.08;98004.28;7235544;40;20262;31
2024/01/18 16:20:49;;;;;;;9.00;5.30;;;;;;;1.11;89.52;98045.28;7241228;40;20344;31
2024/01/18 16:31:13;;;;;;;9.70;5.80;;;;;;;1.27;90.46;98085.44;7228059;40;20400;31
2024/01/18 16:41:51;;;;;;;13.45;6.90;;;;;;;1.17;88.60;98117.25;7286111;39;20243;31
2024/01/18 16:47:12;;;;;;;11.75;7.15;;;;;;;1.07;88.37;98128.78;7339783;39;20249;31
2024/01/18 16:52:33;;;;;;;11.00;6.33;;;;;;;0.87;88.70;98136.69;7336185;39;20511;31
2024/01/18 17:03:14;;;;;;;12.73;7.37;;;;;;;0.76;88.61;98162.44;7261789;40;20744;31
2024/01/18 17:13:53;;;;;;;12.73;7.50;;;;;;;0.78;89.44;98200.28;7250018;40;20414;31
2024/01/18 17:19:27;;;;;;;11.60;6.87;;;;;;;0.80;88.55;98215.06;7256552;40;20242;31
2024/01/18 17:25:03;;;;;;;16.80;7.30;;;;;;;0.79;88.57;98233.78;7277985;40;20272;31
2024/01/18 17:30:37;;;;;;;13.57;7.97;;;;;;;0.90;89.76;98246.97;7258092;40;20257;31
2024/01/18 17:36:13;;;;;;;15.37;8.00;;;;;;;1.02;89.33;98258.34;7276898;39;20292;31
2024/01/18 17:46:54;;;;;;;11.97;7.10;;;;;;;0.85;87.55;98263.25;7223055;40;20845;31
2024/01/18 17:57:33;;;;;;;11.17;6.97;;;;;;;0.82;88.18;98290.06;7216051;40;20488;31
2024/01/18 18:03:09;;;;;;;10.30;6.60;;;;;;;0.81;88.54;98301.63;7261004;39;20289;31
2024/01/18 18:13:49;;;;;;;10.33;6.57;;;;;;;0.76;88.92;98325.03;7258558;39;20283;31
2024/01/18 18:24:30;;;;;;;11.70;7.20;;;;;;;0.93;88.45;98330.72;7246364;40;20750;31
2024/01/18 18:35:03;;;;;;;13.83;7.40;;;;;;;0.86;88.59;98344.53;7299392;39;21255;31
2024/01/18 18:40:37;;;;;;;14.03;8.50;;;;;;;0.85;89.24;98358.75;7233062;40;20270;31
2024/01/18 18:46:12;;;;;;;16.50;10.93;;;;;;;0.83;89.22;98368.63;7187467;40;20246;31
2024/01/18 18:51:47;;;;;;;14.40;7.70;;;;;;;0.81;88.25;98377.69;7243485;40;20506;31
2024/01/18 18:57:24;;;;;;;10.03;6.70;;;;;;;0.69;88.25;98399.91;7247046;40;20270;31
2024/01/18 19:02:44;;;;;;;10.97;6.20;;;;;;;0.65;88.41;98420.53;7238642;40;20340;31
2024/01/18 19:08:21;;;;;;;18.03;6.80;;;;;;;0.64;88.33;98429.44;7244492;40;20245;31
2024/01/18 19:13:42;;;;;;;29.43;15.33;;;;;;;0.71;88.65;98443.03;7196536;40;20243;31
2024/01/18 19:19:17;;;;;;;12.73;7.40;;;;;;;0.53;87.80;98442.72;7235555;40;20246;31
2024/01/18 19:24:53;;;;;;;9.73;5.50;;;;;;;0.36;88.64;98454.66;7228071;40;20293;31
2024/01/18 19:30:30;;;;;;;14.00;8.80;;;;;;;0.39;89.57;98464.19;7140774;40;20244;31
2024/01/18 19:36:08;;;;;;;13.50;8.50;;;;;;;0.52;90.08;98479.97;7113202;40;20327;31
2024/01/18 19:41:41;;;;;;;12.87;8.93;;;;;;;0.62;90.19;98489.69;7082126;40;21225;31
2024/01/18 19:47:16;;;;;;;11.70;6.13;;;;;;;0.70;89.22;98508.47;7169067;40;20296;31
2024/01/18 19:52:54;;;;;;;15.50;7.43;;;;;;;0.67;88.57;98518.50;7236106;40;20241;31
2024/01/18 19:58:28;;;;;;;13.80;7.25;;;;;;;0.63;87.96;98531.16;7227364;40;20253;31
2024/01/18 20:04:03;;;;;;;10.85;6.35;;;;;;;0.52;88.04;98551.53;7217381;40;20336;31
2024/01/18 20:09:39;;;;;;;11.07;6.90;;;;;;;0.44;88.28;98554.75;7208404;40;20258;31
2024/01/18 20:20:22;;;;;;;12.15;6.55;;;;;;;0.37;88.25;98590.66;7257786;39;20288;31
2024/01/18 20:26:00;;;;;;;12.90;6.13;;;;;;;0.38;88.48;98606.47;7298647;39;20373;31
2024/01/18 20:31:30;;;;;;;10.87;5.90;;;;;;;0.26;87.42;98619.81;7291970;39;20265;31
2024/01/18 20:42:09;;;;;;;10.30;5.10;;;;;;;0.23;87.56;98627.97;7324884;39;20710;31
2024/01/18 20:47:44;;;;;;;10.23;5.23;;;;;;;0.29;88.25;98630.16;7239151;40;20243;31
2024/01/18 20:53:04;;;;;;;12.80;5.60;;;;;;;0.31;87.64;98644.97;7170885;40;20341;31
2024/01/18 20:58:41;;;;;;;12.95;5.25;;;;;;;0.31;88.15;98655.56;7221390;40;20273;31
2024/01/18 21:09:23;;;;;;;12.65;5.45;;;;;;;0.26;87.25;98678.94;7289822;39;20493;31
2024/01/18 21:20:04;;;;;;;10.00;4.80;;;;;;;0.19;87.62;98688.28;7277260;40;20268;31
2024/01/18 21:25:23;;;;;;;11.43;7.27;;;;;;;0.02;86.55;98695.81;7279985;39;20398;31
2024/01/18 21:30:44;;;;;;;9.67;4.83;;;;;;;-0.12;86.78;98696.81;7257392;40;20303;31
2024/01/18 21:36:21;;;;;;;9.75;4.95;;;;;;;-0.18;86.83;98697.28;7272963;40;20435;31
2024/01/18 21:41:56;;;;;;;8.57;4.27;;;;;;;-0.14;87.28;98698.75;7251320;40;20402;31
2024/01/18 21:47:31;;;;;;;10.17;4.50;;;;;;;-0.13;87.27;98703.91;7256554;40;20356;31
2024/01/18 21:53:07;;;;;;;7.70;4.00;;;;;;;-0.11;87.50;98711.75;7212351;40;20266;31
2024/01/18 21:58:42;;;;;;;7.20;4.20;;;;;;;-0.15;86.98;98720.87;7197733;40;20271;31
2024/01/18 22:04:17;;;;;;;9.40;4.60;;;;;;;-0.24;86.42;98725.03;7173780;40;20262;31
2024/01/18 22:09:53;;;;;;;5.10;3.50;;;;;;;-0.24;87.04;98724.19;7189494;40;20297;31
2024/01/18 22:15:28;;;;;;;8.10;4.10;;;;;;;-0.20;87.17;98737.09;7208052;40;20246;31
2024/01/18 22:20:48;;;;;;;6.30;3.30;;;;;;;-0.24;86.41;98753.31;7180309;40;20668;31
2024/01/18 22:26:25;;;;;;;4.15;2.90;;;;;;;-0.34;86.59;98762.88;7204559;40;20251;31
2024/01/18 22:32:00;;;;;;;9.27;3.87;;;;;;;-0.36;85.70;98764.78;7228314;40;20278;31
2024/01/18 22:37:32;;;;;;;7.40;3.30;;;;;;;-0.40;86.00;98776.56;7015884;40;21143;31
2024/01/18 22:43:08;;;;;;;6.67;3.17;;;;;;;-0.49;85.68;98786.00;7184911;40;20879;31
2024/01/18 22:53:29;;;;;;;5.97;3.30;;;;;;;-0.55;85.77;98812.87;7191863;40;21315;31
2024/01/18 22:59:07;;;;;;;4.60;2.90;;;;;;;-0.65;84.72;98822.41;7239087;40;20265;31
2024/01/18 23:04:41;;;;;;;5.87;3.13;;;;;;;-0.74;85.77;98823.88;7251989;40;20679;31
2024/01/18 23:10:01;;;;;;;4.00;3.00;;;;;;;-0.74;85.60;98834.47;7302515;39;20300;31
2024/01/18 23:15:38;;;;;;;4.53;2.93;;;;;;;-0.83;85.39;98840.38;7276795;39;20245;31
2024/01/18 23:21:13;;;;;;;5.90;3.40;;;;;;;-0.90;85.20;98849.69;7253365;40;20392;31
2024/01/18 23:26:48;;;;;;;7.60;3.90;;;;;;;-1.08;85.50;98856.22;7218067;40;20278;31
2024/01/18 23:32:22;;;;;;;8.17;3.87;;;;;;;-1.10;86.75;98856.34;7196785;40;20773;31
2024/01/18 23:37:42;;;;;;;7.35;4.05;;;;;;;-0.98;86.07;98863.44;7240628;40;20677;31
2024/01/18 23:43:03;;;;;;;8.77;4.60;;;;;;;-1.01;86.32;98868.09;7240669;40;20877;31
2024/01/18 23:48:38;;;;;;;8.47;4.30;;;;;;;-0.91;86.62;98874.44;7242181;40;20282;31
2024/01/18 23:59:15;;;;;;;7.27;4.33;;;;;;;-0.62;86.98;98891.88;7256173;40;20726;31
